createdAt,value
2018-04-22T00:01:54.520Z,1.00
2018-04-22T00:04:21.219Z,0.73
2018-04-22T00:06:47.955Z,0.70
2018-04-22T00:09:14.679Z,0.77
2018-04-22T00:11:41.383Z,0.80
2018-04-22T00:14:08.092Z,0.70
2018-04-22T00:16:34.807Z,0.67
2018-04-22T00:19:01.527Z,0.70
2018-04-22T00:21:28.302Z,0.50
2018-04-22T00:23:55.055Z,0.70
2018-04-22T00:26:21.759Z,0.73
2018-04-22T00:28:48.460Z,0.80
2018-04-22T00:31:15.205Z,0.70
2018-04-22T00:33:41.920Z,0.80
2018-04-22T00:36:08.628Z,0.83
2018-04-22T00:38:35.327Z,0.73
2018-04-22T00:41:02.024Z,0.53
2018-04-22T00:43:28.756Z,0.60
2018-04-22T00:45:55.683Z,0.80
2018-04-22T00:48:22.384Z,0.63
2018-04-22T00:50:49.095Z,0.60
2018-04-22T00:53:15.802Z,0.60
2018-04-22T00:55:42.537Z,0.50
2018-04-22T00:58:09.232Z,0.50
2018-04-22T01:00:35.931Z,0.60
2018-04-22T01:03:02.632Z,0.60
2018-04-22T01:05:29.333Z,0.60
2018-04-22T01:07:56.057Z,0.40
2018-04-22T01:10:22.778Z,0.60
2018-04-22T01:12:49.473Z,0.50
2018-04-22T01:15:16.171Z,0.37
2018-04-22T01:17:42.879Z,0.60
2018-04-22T01:20:09.612Z,0.70
2018-04-22T01:22:36.316Z,0.67
2018-04-22T01:25:03.023Z,0.60
2018-04-22T01:27:30.567Z,0.50
2018-04-22T01:29:57.275Z,0.60
2018-04-22T01:32:23.995Z,0.50
2018-04-22T01:34:50.702Z,0.50
2018-04-22T01:37:17.427Z,0.40
2018-04-22T01:39:44.129Z,0.60
2018-04-22T01:42:10.836Z,0.60
2018-04-22T01:44:37.539Z,0.60
2018-04-22T01:47:04.246Z,0.50
2018-04-22T01:49:30.970Z,0.70
2018-04-22T01:51:57.699Z,0.60
2018-04-22T01:54:24.644Z,0.80
2018-04-22T01:56:51.351Z,0.50
2018-04-22T01:59:18.048Z,0.60
2018-04-22T02:01:44.805Z,0.50
2018-04-22T02:04:11.526Z,0.50
2018-04-22T02:06:38.232Z,0.60
2018-04-22T02:09:04.942Z,0.60
2018-04-22T02:11:31.638Z,0.50
2018-04-22T02:13:58.355Z,0.53
2018-04-22T02:16:25.059Z,0.50
2018-04-22T02:18:51.763Z,0.60
2018-04-22T02:21:18.471Z,0.50
2018-04-22T02:23:45.172Z,0.80
2018-04-22T02:26:11.918Z,0.87
2018-04-22T02:28:38.623Z,0.60
2018-04-22T02:31:05.332Z,0.57
2018-04-22T02:33:32.043Z,0.60
2018-04-22T02:35:58.745Z,0.70
2018-04-22T02:38:25.523Z,0.53
2018-04-22T02:40:52.216Z,0.60
2018-04-22T02:43:18.925Z,0.53
2018-04-22T02:45:45.664Z,0.80
2018-04-22T02:48:12.363Z,0.57
2018-04-22T02:50:39.085Z,0.63
2018-04-22T02:53:05.787Z,0.77
2018-04-22T02:55:32.492Z,0.50
2018-04-22T02:57:59.217Z,0.60
2018-04-22T03:00:25.932Z,0.40
2018-04-22T03:02:52.658Z,0.60
2018-04-22T03:05:19.356Z,0.50
2018-04-22T03:07:46.060Z,0.60
2018-04-22T03:10:12.757Z,0.70
2018-04-22T03:12:39.467Z,0.40
2018-04-22T03:15:06.203Z,0.50
2018-04-22T03:17:32.912Z,0.70
2018-04-22T03:19:59.611Z,0.67
2018-04-22T03:22:26.315Z,0.50
2018-04-22T03:24:53.029Z,0.53
2018-04-22T03:27:19.756Z,0.63
2018-04-22T03:29:46.471Z,0.60
2018-04-22T03:32:13.179Z,0.40
2018-04-22T03:34:39.891Z,0.47
2018-04-22T03:37:06.600Z,0.50
2018-04-22T03:39:33.351Z,0.60
2018-04-22T03:42:00.052Z,0.80
2018-04-22T03:44:26.755Z,0.57
2018-04-22T03:46:53.512Z,0.57
2018-04-22T03:49:20.196Z,0.70
2018-04-22T03:51:46.921Z,0.50
2018-04-22T03:54:13.615Z,0.50
2018-04-22T03:56:40.319Z,0.60
2018-04-22T03:59:07.091Z,0.50
2018-04-22T04:01:33.792Z,0.70
2018-04-22T04:04:00.487Z,0.57
2018-04-22T04:06:27.183Z,0.70
2018-04-22T04:08:53.888Z,0.57
2018-04-22T04:11:20.584Z,0.50
2018-04-22T04:13:47.283Z,0.80
2018-04-22T04:16:13.980Z,0.60
2018-04-22T04:18:55.387Z,0.70
2018-04-22T04:21:27.967Z,0.53
2018-04-22T04:24:09.580Z,0.47
2018-04-22T04:26:53.016Z,0.70
2018-04-22T04:29:19.949Z,0.47
2018-04-22T04:31:46.655Z,0.60
2018-04-22T04:34:13.351Z,0.47
2018-04-22T04:36:40.067Z,0.60
2018-04-22T04:39:06.780Z,0.43
2018-04-22T04:41:33.519Z,0.50
2018-04-22T04:44:00.227Z,0.60
2018-04-22T04:46:26.947Z,0.60
2018-04-22T04:48:53.643Z,0.60
2018-04-22T04:51:20.343Z,0.40
2018-04-22T04:53:47.063Z,0.60
2018-04-22T04:56:13.773Z,0.47
2018-04-22T04:58:40.480Z,0.53
2018-04-22T05:01:07.175Z,0.70
2018-04-22T05:03:33.901Z,0.40
2018-04-22T05:06:00.628Z,0.53
2018-04-22T05:08:27.324Z,0.60
2018-04-22T05:10:54.027Z,0.50
2018-04-22T05:13:20.732Z,0.57
2018-04-22T05:15:47.439Z,0.40
2018-04-22T05:18:14.171Z,0.53
2018-04-22T05:20:40.872Z,0.40
2018-04-22T05:23:07.564Z,0.70
2018-04-22T05:25:34.557Z,0.50
2018-04-22T05:28:01.259Z,0.50
2018-04-22T05:30:27.994Z,0.33
2018-04-22T05:32:54.691Z,0.43
2018-04-22T05:35:21.393Z,0.70
2018-04-22T05:37:48.105Z,0.40
2018-04-22T05:40:14.813Z,0.53
2018-04-22T05:42:41.533Z,0.40
2018-04-22T05:45:08.229Z,0.50
2018-04-22T05:47:34.930Z,0.60
2018-04-22T05:50:01.631Z,0.87
2018-04-22T05:52:28.332Z,0.60
2018-04-22T05:54:55.152Z,0.47
2018-04-22T05:57:21.870Z,0.60
2018-04-22T05:59:48.575Z,0.50
2018-04-22T06:02:15.319Z,0.33
2018-04-22T06:04:42.045Z,0.60
2018-04-22T06:07:08.775Z,0.57
2018-04-22T06:09:35.570Z,0.43
2018-04-22T06:12:02.270Z,0.50
2018-04-22T06:14:28.972Z,0.50
2018-04-22T06:16:55.671Z,0.50
2018-04-22T06:19:22.391Z,0.50
2018-04-22T06:21:50.143Z,0.50
2018-04-22T06:24:16.843Z,0.47
2018-04-22T06:26:43.590Z,0.53
2018-04-22T06:29:10.288Z,0.60
2018-04-22T06:31:37.012Z,0.50
2018-04-22T06:34:03.711Z,0.70
2018-04-22T06:36:30.408Z,0.30
2018-04-22T06:38:57.111Z,0.50
2018-04-22T06:41:23.847Z,0.30
2018-04-22T06:43:50.615Z,0.37
2018-04-22T06:46:18.060Z,0.50
2018-04-22T06:48:45.129Z,0.40
2018-04-22T06:51:13.120Z,0.43
2018-04-22T06:53:40.197Z,0.40
2018-04-22T06:56:06.967Z,0.40
2018-04-22T06:58:33.663Z,0.40
2018-04-22T07:01:00.407Z,0.50
2018-04-22T07:03:27.111Z,0.60
2018-04-22T07:05:53.819Z,0.50
2018-04-22T07:08:20.816Z,0.40
2018-04-22T07:10:47.517Z,0.40
2018-04-22T07:13:14.222Z,0.40
2018-04-22T07:15:40.932Z,0.70
2018-04-22T07:18:07.647Z,0.30
2018-04-22T07:20:34.379Z,0.30
2018-04-22T07:23:01.253Z,0.50
2018-04-22T07:25:27.964Z,0.50
2018-04-22T07:27:54.668Z,0.50
2018-04-22T07:30:21.372Z,0.40
2018-04-22T07:32:48.098Z,0.40
2018-04-22T07:35:14.825Z,0.57
2018-04-22T07:37:41.521Z,0.40
2018-04-22T07:40:08.231Z,0.43
2018-04-22T07:42:35.114Z,0.27
2018-04-22T07:45:01.912Z,0.30
2018-04-22T07:47:28.614Z,0.50
2018-04-22T07:49:55.322Z,0.50
2018-04-22T07:52:22.019Z,0.50
2018-04-22T07:54:48.721Z,0.40
2018-04-22T07:57:15.472Z,0.53
2018-04-22T07:59:42.181Z,0.40
2018-04-22T08:02:08.898Z,0.37
2018-04-22T08:04:35.606Z,0.30
2018-04-22T08:07:02.299Z,0.47
2018-04-22T08:09:29.028Z,0.40
2018-04-22T08:11:55.724Z,0.40
2018-04-22T08:14:22.415Z,0.30
2018-04-22T08:16:49.115Z,0.40
2018-04-22T08:19:15.815Z,0.40
2018-04-22T08:21:42.571Z,0.53
2018-04-22T08:24:09.271Z,0.40
2018-04-22T08:26:35.978Z,0.60
2018-04-22T08:29:02.680Z,0.47
2018-04-22T08:31:29.375Z,0.50
2018-04-22T08:33:56.360Z,0.37
2018-04-22T08:36:23.150Z,0.63
2018-04-22T08:38:49.856Z,0.40
2018-04-22T08:41:16.580Z,0.60
2018-04-22T08:43:43.288Z,0.80
2018-04-22T08:46:10.056Z,0.50
2018-04-22T08:48:36.794Z,0.30
2018-04-22T08:51:03.487Z,0.60
2018-04-22T08:53:30.190Z,0.60
2018-04-22T08:55:56.970Z,0.40
2018-04-22T08:58:23.678Z,0.50
2018-04-22T09:00:50.375Z,0.50
2018-04-22T09:03:17.111Z,0.40
2018-04-22T09:05:43.813Z,0.37
2018-04-22T09:08:10.513Z,0.37
2018-04-22T09:10:37.241Z,0.40
2018-04-22T09:13:03.961Z,0.50
2018-04-22T09:15:30.663Z,0.60
2018-04-22T09:17:57.387Z,0.50
2018-04-22T09:20:24.087Z,0.40
2018-04-22T09:22:50.804Z,0.40
2018-04-22T09:25:17.507Z,0.30
2018-04-22T09:27:44.215Z,0.67
2018-04-22T09:30:10.935Z,0.50
2018-04-22T09:32:37.647Z,0.50
2018-04-22T09:35:04.360Z,0.40
2018-04-22T09:37:31.061Z,0.63
2018-04-22T09:39:57.988Z,0.30
2018-04-22T09:42:24.713Z,0.60
2018-04-22T09:44:51.412Z,0.57
2018-04-22T09:47:18.113Z,0.50
2018-04-22T09:49:44.828Z,0.43
2018-04-22T09:52:11.535Z,0.53
2018-04-22T09:54:38.261Z,0.50
2018-04-22T09:57:05.030Z,0.40
2018-04-22T09:59:31.749Z,0.50
2018-04-22T10:01:58.652Z,0.50
2018-04-22T10:04:29.088Z,0.40
2018-04-22T10:06:55.795Z,0.53
2018-04-22T10:09:22.652Z,1.73
2018-04-22T10:11:49.379Z,0.60
2018-04-22T10:14:16.095Z,0.63
2018-04-22T10:16:42.804Z,0.50
2018-04-22T10:19:09.509Z,0.90
2018-04-22T10:21:36.207Z,0.60
2018-04-22T10:24:02.919Z,0.60
2018-04-22T10:26:29.835Z,0.50
2018-04-22T10:28:56.537Z,0.47
2018-04-22T10:31:23.240Z,0.50
2018-04-22T10:33:49.939Z,0.50
2018-04-22T10:36:16.672Z,0.60
2018-04-22T10:38:43.399Z,0.40
2018-04-22T10:41:10.099Z,1.00
2018-04-22T10:43:36.796Z,0.70
2018-04-22T10:46:03.498Z,1.00
2018-04-22T10:48:30.488Z,0.80
2018-04-22T10:50:57.195Z,0.53
2018-04-22T10:53:23.901Z,0.90
2018-04-22T10:55:50.611Z,0.57
2018-04-22T10:58:17.323Z,0.60
2018-04-22T11:00:44.051Z,0.40
2018-04-22T11:03:10.792Z,0.40
2018-04-22T11:05:37.552Z,0.60
2018-04-22T11:08:04.247Z,0.53
2018-04-22T11:10:31.199Z,0.80
2018-04-22T11:12:57.925Z,0.30
2018-04-22T11:15:24.629Z,0.60
2018-04-22T11:17:51.325Z,0.60
2018-04-22T11:20:18.035Z,0.57
2018-04-22T11:22:44.756Z,0.40
2018-04-22T11:25:11.497Z,0.40
2018-04-22T11:27:38.200Z,0.80
2018-04-22T11:30:04.903Z,0.50
2018-04-22T11:32:31.599Z,0.50
2018-04-22T11:34:58.350Z,0.40
2018-04-22T11:37:25.076Z,0.50
2018-04-22T11:39:52.242Z,0.60
2018-04-22T11:42:18.984Z,0.60
2018-04-22T11:44:45.685Z,0.57
2018-04-22T11:47:12.380Z,0.40
2018-04-22T11:49:39.091Z,0.63
2018-04-22T11:52:05.806Z,0.40
2018-04-22T11:54:32.535Z,0.50
2018-04-22T11:56:59.238Z,0.63
2018-04-22T11:59:25.942Z,0.90
2018-04-22T12:01:52.647Z,0.60
2018-04-22T12:04:19.351Z,0.83
2018-04-22T12:06:46.492Z,0.50
2018-04-22T12:09:13.194Z,0.53
2018-04-22T12:11:39.891Z,0.50
2018-04-22T12:14:06.584Z,0.50
2018-04-22T12:16:33.281Z,0.40
2018-04-22T12:19:00.012Z,0.30
2018-04-22T12:21:26.711Z,0.40
2018-04-22T12:23:53.414Z,0.40
2018-04-22T12:26:20.306Z,0.40
2018-04-22T12:28:47.011Z,0.67
2018-04-22T12:31:13.731Z,0.80
2018-04-22T12:33:40.434Z,0.37
2018-04-22T12:36:07.550Z,0.63
2018-04-22T12:38:34.247Z,0.60
2018-04-22T12:41:01.054Z,0.50
2018-04-22T12:43:27.776Z,0.40
2018-04-22T12:45:54.483Z,0.60
2018-04-22T12:48:21.183Z,0.30
2018-04-22T12:50:47.879Z,0.40
2018-04-22T12:53:14.668Z,0.77
2018-04-22T12:55:41.392Z,0.50
2018-04-22T12:58:08.130Z,0.50
2018-04-22T13:00:34.840Z,0.30
2018-04-22T13:03:01.552Z,0.47
2018-04-22T13:05:28.259Z,0.50
2018-04-22T13:07:54.989Z,0.40
2018-04-22T13:10:21.687Z,0.60
2018-04-22T13:12:48.396Z,0.50
2018-04-22T13:15:15.164Z,0.50
2018-04-22T13:17:42.156Z,0.60
2018-04-22T13:20:08.876Z,0.50
2018-04-22T13:22:35.591Z,0.60
2018-04-22T13:25:02.305Z,0.60
2018-04-22T13:27:29.004Z,0.63
2018-04-22T13:29:55.705Z,0.47
2018-04-22T13:32:22.441Z,0.60
2018-04-22T13:34:49.143Z,0.40
2018-04-22T13:37:15.859Z,0.40
2018-04-22T13:39:42.551Z,0.40
2018-04-22T13:42:09.253Z,0.60
2018-04-22T13:44:35.980Z,0.80
2018-04-22T13:47:02.737Z,0.80
2018-04-22T13:49:29.466Z,0.70
2018-04-22T13:51:56.167Z,1.00
2018-04-22T13:54:22.885Z,1.30
2018-04-22T13:56:49.606Z,1.30
2018-04-22T13:59:16.645Z,1.10
2018-04-22T14:01:43.480Z,1.07
2018-04-22T14:04:10.322Z,1.00
2018-04-22T14:06:37.042Z,1.00
2018-04-22T14:09:03.793Z,1.00
2018-04-22T14:11:30.542Z,1.00
2018-04-22T14:13:57.233Z,0.70
2018-04-22T14:16:23.972Z,0.90
2018-04-22T14:18:50.763Z,1.00
2018-04-22T14:21:17.495Z,1.20
2018-04-22T14:23:44.242Z,1.33
2018-04-22T14:26:10.936Z,1.57
2018-04-22T14:28:37.636Z,1.17
2018-04-22T14:31:04.339Z,1.30
2018-04-22T14:33:31.073Z,0.97
2018-04-22T14:35:57.767Z,1.00
2018-04-22T14:38:24.467Z,0.90
2018-04-22T14:40:51.163Z,0.73
2018-04-22T14:43:18.062Z,0.80
2018-04-22T14:45:50.751Z,0.90
2018-04-22T14:48:17.450Z,0.77
2018-04-22T14:50:44.187Z,0.83
2018-04-22T14:53:10.911Z,0.60
2018-04-22T14:55:37.623Z,0.80
2018-04-22T14:58:04.316Z,0.70
2018-04-22T15:00:31.015Z,0.80
2018-04-22T15:02:57.717Z,0.80
2018-04-22T15:05:24.423Z,0.80
2018-04-22T15:07:51.123Z,0.70
2018-04-22T15:10:17.833Z,0.80
2018-04-22T15:12:44.538Z,0.90
2018-04-22T15:15:11.236Z,0.90
2018-04-22T15:17:37.945Z,1.10
2018-04-22T15:20:04.668Z,0.97
2018-04-22T15:22:31.391Z,0.90
2018-04-22T15:24:58.356Z,0.97
2018-04-22T15:27:25.084Z,0.80
2018-04-22T15:29:51.791Z,0.80
2018-04-22T15:32:18.492Z,1.23
2018-04-22T15:34:45.240Z,1.10
2018-04-22T15:37:11.966Z,0.90
2018-04-22T15:39:38.705Z,0.83
2018-04-22T15:42:05.404Z,1.30
2018-04-22T15:44:32.134Z,0.90
2018-04-22T15:46:58.839Z,1.60
2018-04-22T15:49:25.549Z,1.03
2018-04-22T15:51:52.280Z,1.10
2018-04-22T15:54:18.977Z,0.80
2018-04-22T15:56:45.678Z,0.80
2018-04-22T15:59:12.371Z,0.80
2018-04-22T16:01:39.075Z,0.90
2018-04-22T16:04:05.804Z,0.80
2018-04-22T16:06:32.500Z,1.20
2018-04-22T16:08:59.199Z,0.90
2018-04-22T16:11:25.903Z,0.90
2018-04-22T16:13:52.600Z,0.93
2018-04-22T16:16:19.321Z,0.90
2018-04-22T16:18:46.027Z,0.90
2018-04-22T16:21:12.736Z,1.10
2018-04-22T16:23:39.457Z,0.90
2018-04-22T16:26:06.158Z,0.93
2018-04-22T16:28:32.883Z,0.90
2018-04-22T16:30:59.589Z,0.80
2018-04-22T16:33:26.295Z,0.70
2018-04-22T16:35:52.995Z,0.77
2018-04-22T16:38:19.714Z,0.70
2018-04-22T16:40:46.438Z,1.00
2018-04-22T16:43:13.144Z,1.00
2018-04-22T16:45:39.843Z,0.93
2018-04-22T16:48:06.546Z,0.93
2018-04-22T16:50:33.303Z,0.90
2018-04-22T16:53:00.210Z,0.90
2018-04-22T16:55:26.936Z,1.00
2018-04-22T16:57:53.648Z,0.80
2018-04-22T17:00:21.081Z,0.77
2018-04-22T17:02:47.783Z,0.90
2018-04-22T17:05:14.500Z,0.87
2018-04-22T17:07:41.194Z,0.80
2018-04-22T17:10:08.104Z,0.90
2018-04-22T17:12:34.828Z,1.03
2018-04-22T17:15:01.557Z,1.00
2018-04-22T17:17:28.263Z,1.00
2018-04-22T17:19:54.964Z,1.00
2018-04-22T17:22:21.664Z,1.03
2018-04-22T17:24:48.360Z,0.90
2018-04-22T17:27:15.063Z,1.00
2018-04-22T17:29:41.787Z,1.10
2018-04-22T17:32:08.488Z,1.20
2018-04-22T17:34:35.200Z,1.20
2018-04-22T17:37:01.912Z,0.80
2018-04-22T17:39:28.610Z,1.20
2018-04-22T17:41:55.324Z,1.97
2018-04-22T17:44:22.044Z,1.83
2018-04-22T17:46:48.737Z,2.27
2018-04-22T17:49:15.443Z,2.37
2018-04-22T17:51:42.156Z,2.40
2018-04-22T17:54:08.900Z,2.20
2018-04-22T17:56:35.602Z,1.90
2018-04-22T17:59:02.315Z,1.90
2018-04-22T18:01:29.024Z,1.80
2018-04-22T18:03:55.736Z,1.53
2018-04-22T18:06:22.468Z,1.30
2018-04-22T18:08:49.172Z,1.20
2018-04-22T18:11:15.892Z,1.40
2018-04-22T18:13:42.606Z,1.07
2018-04-22T18:16:09.312Z,1.00
2018-04-22T18:18:36.048Z,1.17
2018-04-22T18:21:02.748Z,1.10
2018-04-22T18:23:29.515Z,1.07
2018-04-22T18:25:56.435Z,0.80
2018-04-22T18:28:23.142Z,0.93
2018-04-22T18:30:49.867Z,0.90
2018-04-22T18:33:16.596Z,1.10
2018-04-22T18:35:43.303Z,0.90
2018-04-22T18:38:10.012Z,0.90
2018-04-22T18:40:36.708Z,1.10
2018-04-22T18:43:03.433Z,1.00
2018-04-22T18:45:30.136Z,1.00
2018-04-22T18:47:56.847Z,1.00
2018-04-22T18:50:23.554Z,1.20
2018-04-22T18:52:50.263Z,1.30
2018-04-22T18:55:17.010Z,1.20
2018-04-22T18:57:43.721Z,1.20
2018-04-22T19:00:10.423Z,1.03
2018-04-22T19:02:37.126Z,1.33
2018-04-22T19:05:03.862Z,1.27
2018-04-22T19:07:30.590Z,1.20
2018-04-22T19:09:57.296Z,1.20
2018-04-22T19:12:23.995Z,1.40
2018-04-22T19:14:50.720Z,1.33
2018-04-22T19:17:17.427Z,1.40
2018-04-22T19:19:44.178Z,1.33
2018-04-22T19:22:10.905Z,1.67
2018-04-22T19:24:37.612Z,1.40
2018-04-22T19:27:04.327Z,1.50
2018-04-22T19:29:31.026Z,1.50
2018-04-22T19:31:57.745Z,1.70
2018-04-22T19:34:24.452Z,2.00
2018-04-22T19:36:51.156Z,1.80
2018-04-22T19:39:17.849Z,2.33
2018-04-22T19:41:44.569Z,3.93
2018-04-22T19:44:11.299Z,3.30
2018-04-22T19:46:37.995Z,2.27
2018-04-22T19:49:04.701Z,1.93
2018-04-22T19:51:31.396Z,1.40
2018-04-22T19:53:58.105Z,1.60
2018-04-22T19:56:24.827Z,1.20
2018-04-22T19:58:51.653Z,1.40
2018-04-22T20:01:18.362Z,1.10
2018-04-22T20:03:45.123Z,1.20
2018-04-22T20:06:11.830Z,1.07
2018-04-22T20:08:38.547Z,1.20
2018-04-22T20:11:05.251Z,1.00
2018-04-22T20:13:31.955Z,1.10
2018-04-22T20:15:58.689Z,1.10
2018-04-22T20:18:25.390Z,0.90
2018-04-22T20:20:52.124Z,1.10
2018-04-22T20:23:18.830Z,1.07
2018-04-22T20:25:45.575Z,0.90
2018-04-22T20:28:12.275Z,0.83
2018-04-22T20:30:38.987Z,0.90
2018-04-22T20:33:05.715Z,0.90
2018-04-22T20:35:32.465Z,0.83
2018-04-22T20:37:59.175Z,0.80
2018-04-22T20:40:25.916Z,0.70
2018-04-22T20:42:52.663Z,0.90
2018-04-22T20:45:19.395Z,0.90
2018-04-22T20:47:46.138Z,0.73
2018-04-22T20:50:12.843Z,1.00
2018-04-22T20:52:39.543Z,0.90
2018-04-22T20:55:06.239Z,0.80
2018-04-22T20:57:32.959Z,0.90
2018-04-22T20:59:59.653Z,0.70
2018-04-22T21:02:26.356Z,1.00
2018-04-22T21:04:53.316Z,0.80
2018-04-22T21:07:20.443Z,0.90
2018-04-22T21:09:47.205Z,0.80
2018-04-22T21:12:13.948Z,1.00
2018-04-22T21:14:40.651Z,0.90
2018-04-22T21:17:07.344Z,0.90
2018-04-22T21:19:34.048Z,0.90
2018-04-22T21:22:00.776Z,0.90
2018-04-22T21:24:27.491Z,0.80
2018-04-22T21:26:54.388Z,1.00
2018-04-22T21:29:21.083Z,1.00
2018-04-22T21:31:47.779Z,1.00
2018-04-22T21:34:14.476Z,0.90
2018-04-22T21:36:41.178Z,0.80
2018-04-22T21:39:07.887Z,1.00
2018-04-22T21:41:34.587Z,1.20
2018-04-22T21:44:01.307Z,0.97
2018-04-22T21:46:27.999Z,1.20
2018-04-22T21:48:54.699Z,1.00
2018-04-22T21:51:21.440Z,1.00
2018-04-22T21:53:48.156Z,1.17
2018-04-22T21:56:14.859Z,1.03
2018-04-22T21:58:41.584Z,0.90
2018-04-22T22:01:08.303Z,1.10
2018-04-22T22:03:35.010Z,1.10
2018-04-22T22:06:01.710Z,1.10
2018-04-22T22:08:28.411Z,1.00
2018-04-22T22:10:55.123Z,0.90
2018-04-22T22:13:21.818Z,1.00
2018-04-22T22:15:48.515Z,1.00
2018-04-22T22:18:15.209Z,1.10
2018-04-22T22:20:41.911Z,1.00
2018-04-22T22:23:08.648Z,1.00
2018-04-22T22:25:35.351Z,1.03
2018-04-22T22:28:02.047Z,0.97
2018-04-22T22:30:28.747Z,1.07
2018-04-22T22:32:55.753Z,1.20
2018-04-22T22:35:22.475Z,1.07
2018-04-22T22:37:49.175Z,0.90
2018-04-22T22:40:15.883Z,1.20
2018-04-22T22:42:42.589Z,1.10
2018-04-22T22:45:09.295Z,0.93
2018-04-22T22:47:36.015Z,0.90
2018-04-22T22:50:02.713Z,0.90
2018-04-22T22:52:29.409Z,1.00
2018-04-22T22:54:56.111Z,1.20
2018-04-22T22:57:22.861Z,1.10
2018-04-22T22:59:49.592Z,1.00
2018-04-22T23:02:16.283Z,1.00
2018-04-22T23:04:42.992Z,1.00
2018-04-22T23:07:09.687Z,1.60
2018-04-22T23:09:36.381Z,1.00
2018-04-22T23:12:03.104Z,0.90
2018-04-22T23:14:29.801Z,0.90
2018-04-22T23:16:56.543Z,0.87
2018-04-22T23:19:23.276Z,0.90
2018-04-22T23:21:50.143Z,0.90
2018-04-22T23:24:16.877Z,0.70
2018-04-22T23:26:43.612Z,0.80
2018-04-22T23:29:10.321Z,0.80
2018-04-22T23:31:37.211Z,0.70
2018-04-22T23:34:03.903Z,0.50
2018-04-22T23:36:30.627Z,0.80
2018-04-22T23:38:57.322Z,0.70
2018-04-22T23:41:24.021Z,0.70
2018-04-22T23:43:50.716Z,0.60
2018-04-22T23:46:17.412Z,0.60
2018-04-22T23:48:44.139Z,0.80
2018-04-22T23:51:10.839Z,0.70
2018-04-22T23:53:37.543Z,0.70
2018-04-22T23:56:04.241Z,0.80
2018-04-22T23:58:30.935Z,0.87
